• Join FlightAware (Why Join?)
  • Login
  • US Flag 
12:55PM EDT


 

Airport Tracker/Info


-or-


 

Live Flight TrackerFlight Track Log ✈ N1705R ✈ 17-Aug-2013 ✈ F70 - KEMT

Flight Track Log - Related Links

Times and Time Zones

All times are in EDT time to prevent confusion due to time zone crossing. See the N1705R flight status page for this flight to view local times or setup timezone preferences in your user account.

Time Position Orientation Groundspeed Altitude Reporting Facility
EDT Latitude Longitude Course Direction KTS MPH feet Rate Location/Type
02:12PM 33.5833 -117.1667 304° West 106 122 4,100  Level Southern California TRACON
02:13PM 33.6000 -117.2000 301° West 112 129 4,400 180 Climbing Southern California TRACON
02:14PM 33.6167 -117.2333 301° West 134 154 4,500  Climbing Southern California TRACON
02:15PM 33.6500 -117.2667 320° Northwest 147 169 4,400  Descending Southern California TRACON
02:16PM 33.6833 -117.3000 320° Northwest 143 165 4,500  Climbing Southern California TRACON
02:17PM 33.6913 -117.3339 304° West  Level Estimated
02:17PM 33.7167 -117.3333 320° Northwest 145 167 4,500  Level Southern California TRACON
02:18PM 33.7333 -117.3667 301° West 146 168 4,500 -60 Level Southern California TRACON
02:19PM 33.7500 -117.4167 292° West 147 169 4,400  Descending Southern California TRACON
02:20PM 33.7667 -117.4500 301° West 145 167 4,500  Climbing Southern California TRACON
02:21PM 33.7833 -117.5000 292° West 146 168 4,500  Level Southern California TRACON
02:22PM 33.8167 -117.5333 320° Northwest 146 168 4,500  Level Southern California TRACON
02:23PM 33.8167 -117.5833 270° West 145 167 4,500  Level Southern California TRACON
02:23PM 33.8289 -117.6028 307° West 146 168 4,500  Level Los Angeles Center
02:24PM 33.8492 -117.6436 301° West 144 166 4,500  Level Los Angeles Center
02:25PM 33.8756 -117.6931 303° West 146 168 4,600 -180 Climbing Los Angeles Center
02:26PM 33.9042 -117.7306 313° West 148 170 4,200 -360 Descending Los Angeles Center
02:27PM 33.9300 -117.7742 306° West 154 177 3,800 -480 Descending Los Angeles Center
02:28PM 33.9597 -117.8269 304° West 158 182 3,200 -540 Descending Los Angeles Center
02:29PM 33.9858 -117.8694 307° West 158 182 2,700 -540 Descending Los Angeles Center
02:31PM 34.0156 -117.9239 303° West 160 184 2,100 -480 Descending Los Angeles Center
02:32PM 34.0367 -117.9669 301° West 157 181 1,800 -360 Descending Los Angeles Center
02:33PM 34.0667 -118.0000 318° Northwest 134 154 1,400 -300 Descending Southern California TRACON
02:34PM 34.0833 -118.0167 320° Northwest 123 142 1,200 -180 Descending Southern California TRACON
02:35PM 34.1000 -118.0167 360° North 91 105 1,100 -120 Descending Southern California TRACON
02:38PM 34.0833 -118.0333 North  Level FlightAware Approximate